createdAt,value
2018-10-02T00:00:35.882Z,90.70
2018-10-02T00:03:06.121Z,90.80
2018-10-02T00:05:36.797Z,90.80
2018-10-02T00:08:06.832Z,90.80
2018-10-02T00:10:41.019Z,90.80
2018-10-02T00:13:16.281Z,90.70
2018-10-02T00:15:46.740Z,90.70
2018-10-02T00:18:26.337Z,90.60
2018-10-02T00:21:00.926Z,90.50
2018-10-02T00:23:31.531Z,90.50
2018-10-02T00:26:02.871Z,90.60
2018-10-02T00:28:33.679Z,90.60
2018-10-02T00:31:04.685Z,90.50
2018-10-02T00:33:35.192Z,90.40
2018-10-02T00:36:05.745Z,90.50
2018-10-02T00:38:38.186Z,90.50
2018-10-02T00:41:09.349Z,90.50
2018-10-02T02:22:00.494Z,92.30
2018-10-02T02:24:31.071Z,92.40
2018-10-02T02:30:08.922Z,92.60
2018-10-02T02:32:41.176Z,92.50
2018-10-02T02:35:12.436Z,92.60
2018-10-02T02:37:42.980Z,92.70
2018-10-02T02:40:14.077Z,92.70
2018-10-02T02:42:44.246Z,92.50
2018-10-02T02:45:17.233Z,92.60
2018-10-02T02:47:52.268Z,92.70
2018-10-02T02:51:02.266Z,92.70
2018-10-02T02:53:35.248Z,92.80
2018-10-02T02:56:06.015Z,92.90
2018-10-02T02:58:36.012Z,93.10
2018-10-02T03:01:07.337Z,93.30
2018-10-02T03:03:37.820Z,93.30
2018-10-02T03:06:08.447Z,93.30
2018-10-02T03:08:38.330Z,93.30
2018-10-02T03:11:08.524Z,93.50
2018-10-02T03:13:39.208Z,93.40
2018-10-02T03:16:11.048Z,93.40
2018-10-02T03:18:41.595Z,93.40
2018-10-02T03:21:11.958Z,93.40
2018-10-02T03:23:41.952Z,93.40
2018-10-02T03:26:12.335Z,93.40
2018-10-02T03:28:43.441Z,93.50
2018-10-02T03:31:14.093Z,93.50
2018-10-02T03:33:45.878Z,93.50
2018-10-02T03:36:16.327Z,93.60
2018-10-02T03:38:47.493Z,93.80
2018-10-02T03:41:17.674Z,93.90
2018-10-02T03:43:48.234Z,93.90
2018-10-02T03:46:18.315Z,93.90
2018-10-02T03:48:48.535Z,94.00
2018-10-02T03:51:19.895Z,93.70
2018-10-02T03:53:51.132Z,93.60
2018-10-02T03:56:21.782Z,94.00
2018-10-02T03:58:54.038Z,93.70
2018-10-02T04:01:25.462Z,93.80
2018-10-02T04:03:56.473Z,93.70
2018-10-02T04:06:27.863Z,93.80
2018-10-02T04:08:58.556Z,93.90
2018-10-02T04:11:28.767Z,93.90
2018-10-02T04:14:00.545Z,94.10
2018-10-02T04:16:31.716Z,94.20
2018-10-02T04:19:03.519Z,94.20
2018-10-02T04:21:38.208Z,94.20
2018-10-02T04:24:08.942Z,94.30
2018-10-02T04:26:39.429Z,94.20
2018-10-02T04:29:09.882Z,94.20
2018-10-02T04:31:41.204Z,94.00
2018-10-02T04:34:12.679Z,94.10
2018-10-02T04:36:43.644Z,94.10
2018-10-02T04:39:14.652Z,94.10
2018-10-02T04:41:45.076Z,94.10
2018-10-02T04:44:15.947Z,94.10
2018-10-02T04:46:47.163Z,94.20
2018-10-02T04:49:19.030Z,94.30
2018-10-02T04:51:49.156Z,94.30
2018-10-02T04:54:19.492Z,94.30
2018-10-02T04:56:50.331Z,94.70
2018-10-02T04:59:20.850Z,94.40
2018-10-02T05:01:52.104Z,94.60
2018-10-02T05:04:41.126Z,94.50
2018-10-02T05:07:22.627Z,94.40
2018-10-02T05:09:54.187Z,94.50
2018-10-02T05:12:24.893Z,94.40
2018-10-02T05:14:55.446Z,94.40
2018-10-02T05:17:25.165Z,94.40
2018-10-02T05:20:00.729Z,94.40
2018-10-02T05:22:31.390Z,94.20
2018-10-02T05:25:13.045Z,94.20
2018-10-02T05:28:01.752Z,94.10
2018-10-02T05:30:33.373Z,94.00
2018-10-02T05:33:08.214Z,94.10
2018-10-02T05:35:45.766Z,93.90
2018-10-02T05:38:15.557Z,94.00
2018-10-02T05:40:46.795Z,93.90
2018-10-02T05:43:20.859Z,93.80
2018-10-02T05:45:51.855Z,93.60
2018-10-02T05:48:23.237Z,93.50
2018-10-02T05:51:02.617Z,93.40
2018-10-02T05:53:44.356Z,93.00
2018-10-02T05:56:24.380Z,92.90
2018-10-02T05:58:55.148Z,92.90
2018-10-02T06:01:25.442Z,92.90
2018-10-02T06:03:56.094Z,92.40
2018-10-02T06:06:32.335Z,92.10
2018-10-02T06:09:02.924Z,92.10
2018-10-02T06:11:34.457Z,92.10
2018-10-02T06:14:04.552Z,92.20
2018-10-02T06:16:41.055Z,92.50
2018-10-02T06:19:14.872Z,92.50
2018-10-02T06:21:45.905Z,92.40
2018-10-02T06:24:16.479Z,92.40
2018-10-02T06:26:50.834Z,92.60
2018-10-02T06:32:05.217Z,91.90
2018-10-02T06:34:36.214Z,91.50
2018-10-02T06:39:11.474Z,91.70
2018-10-02T06:41:48.631Z,91.50
2018-10-02T06:44:19.302Z,91.70
2018-10-02T06:46:50.140Z,91.50
2018-10-02T06:49:23.774Z,91.20
2018-10-02T06:51:55.314Z,91.20
2018-10-02T06:54:27.039Z,91.20
2018-10-02T06:56:57.219Z,91.00
2018-10-02T06:59:30.091Z,91.10
2018-10-02T07:02:02.749Z,91.00
2018-10-02T07:04:33.519Z,91.00
2018-10-02T07:07:03.881Z,91.20
2018-10-02T07:09:35.096Z,91.40
2018-10-02T07:12:06.498Z,91.40
2018-10-02T07:14:37.699Z,91.10
2018-10-02T07:17:08.198Z,90.80
2018-10-02T07:19:45.706Z,90.70
2018-10-02T07:22:18.120Z,90.60
2018-10-02T07:24:48.949Z,90.70
2018-10-02T07:27:21.261Z,90.70
2018-10-02T07:29:53.534Z,90.60
2018-10-02T07:32:23.694Z,90.50
2018-10-02T07:34:54.237Z,90.20
2018-10-02T07:37:25.795Z,90.30
2018-10-02T07:39:56.391Z,90.20
2018-10-02T07:42:26.722Z,90.20
2018-10-02T07:44:58.957Z,90.30
2018-10-02T07:47:32.037Z,90.50
2018-10-02T07:50:09.096Z,90.50
2018-10-02T07:52:40.278Z,90.30
2018-10-02T07:55:15.609Z,90.10
2018-10-02T07:57:50.535Z,90.10
2018-10-02T08:00:22.713Z,90.00
2018-10-02T08:02:55.983Z,90.10
2018-10-02T08:05:41.106Z,89.80
2018-10-02T08:08:13.872Z,87.90
2018-10-02T08:10:45.199Z,88.00
2018-10-02T08:13:16.065Z,88.70
2018-10-02T08:15:50.379Z,88.30
2018-10-02T08:18:32.993Z,89.00
2018-10-02T08:21:04.191Z,88.10
2018-10-02T08:23:37.507Z,87.50
2018-10-02T08:26:08.970Z,86.10
2018-10-02T08:28:47.121Z,86.40
2018-10-02T08:31:18.805Z,85.80
2018-10-02T08:33:59.465Z,86.60
2018-10-02T08:36:30.989Z,85.80
2018-10-02T08:39:01.266Z,85.50
2018-10-02T08:41:31.323Z,84.90
2018-10-02T08:44:02.545Z,85.50
2018-10-02T08:46:33.546Z,86.30
2018-10-02T08:49:03.505Z,86.40
2018-10-02T08:51:34.096Z,86.10
2018-10-02T08:54:06.702Z,86.30
2018-10-02T08:56:43.508Z,85.80
2018-10-02T08:59:35.575Z,83.90
2018-10-02T09:02:18.856Z,84.70
2018-10-02T09:05:08.005Z,85.30
2018-10-02T09:07:44.357Z,83.70
2018-10-02T09:10:24.350Z,83.30
2018-10-02T09:12:56.500Z,84.40
2018-10-02T09:15:27.792Z,84.40
2018-10-02T09:17:58.765Z,84.30
2018-10-02T09:20:32.806Z,84.10
2018-10-02T09:23:03.645Z,84.10
2018-10-02T09:25:35.799Z,83.10
2018-10-02T09:28:06.090Z,82.00
2018-10-02T09:31:48.502Z,82.10
2018-10-02T09:34:23.713Z,82.10
2018-10-02T09:37:08.090Z,82.30
2018-10-02T09:39:46.376Z,82.20
2018-10-02T09:42:22.477Z,81.50
2018-10-02T09:44:53.268Z,81.80
2018-10-02T09:47:28.589Z,80.80
2018-10-02T09:49:58.959Z,80.50
2018-10-02T09:52:29.583Z,80.30
2018-10-02T09:55:00.888Z,80.80
2018-10-02T09:57:30.911Z,79.90
2018-10-02T10:00:11.736Z,80.30
2018-10-02T10:02:42.389Z,80.60
2018-10-02T10:05:15.499Z,80.50
2018-10-02T10:08:07.222Z,79.60
2018-10-02T10:10:48.867Z,79.10
2018-10-02T10:13:24.326Z,78.80
2018-10-02T10:16:00.176Z,78.80
2018-10-02T10:18:32.953Z,79.10
2018-10-02T10:21:02.800Z,78.80
2018-10-02T10:23:34.192Z,78.20
2018-10-02T10:26:06.718Z,77.80
2018-10-02T10:28:38.415Z,77.80
2018-10-02T10:31:13.196Z,77.60
2018-10-02T10:33:46.697Z,77.00
2018-10-02T10:36:17.965Z,77.00
2018-10-02T10:38:50.015Z,76.10
2018-10-02T10:41:27.456Z,77.60
2018-10-02T10:44:03.439Z,78.60
2018-10-02T10:46:37.262Z,80.30
2018-10-02T10:49:09.395Z,80.60
2018-10-02T10:51:41.050Z,81.30
2018-10-02T10:54:12.436Z,82.20
2018-10-02T10:56:42.865Z,82.10
2018-10-02T10:59:13.263Z,80.30
2018-10-02T11:01:46.235Z,81.20
2018-10-02T11:04:16.174Z,81.40
2018-10-02T11:07:04.871Z,83.30
2018-10-02T11:09:40.587Z,82.80
2018-10-02T11:12:12.892Z,84.00
2018-10-02T11:14:45.159Z,84.40
2018-10-02T11:17:15.255Z,84.50
2018-10-02T11:19:46.407Z,85.90
2018-10-02T11:22:16.481Z,86.00
2018-10-02T11:24:47.453Z,86.90
2018-10-02T11:27:18.512Z,86.90
2018-10-02T11:29:49.723Z,87.00
2018-10-02T11:32:25.660Z,86.20
2018-10-02T11:34:58.630Z,86.80
2018-10-02T11:37:30.284Z,86.10
2018-10-02T11:40:02.173Z,85.30
2018-10-02T11:42:34.622Z,86.00
2018-10-02T11:45:05.434Z,86.20
2018-10-02T11:47:38.797Z,84.30
2018-10-02T11:50:10.626Z,84.20
2018-10-02T11:52:49.278Z,83.20
2018-10-02T11:55:29.762Z,83.10
2018-10-02T11:58:02.483Z,80.80
2018-10-02T12:00:34.603Z,82.30
2018-10-02T12:03:09.734Z,82.00
2018-10-02T12:05:44.024Z,80.40
2018-10-02T12:08:16.594Z,78.50
2018-10-02T12:10:48.927Z,78.30
2018-10-02T12:13:26.059Z,78.40
2018-10-02T12:16:02.871Z,79.20
2018-10-02T12:18:33.682Z,77.70
2018-10-02T12:21:06.236Z,78.30
2018-10-02T12:23:37.916Z,77.80
2018-10-02T12:26:09.204Z,76.10
2018-10-02T12:28:46.287Z,76.10
2018-10-02T12:31:29.758Z,75.90
2018-10-02T12:34:16.018Z,75.20
2018-10-02T12:36:53.920Z,76.20
2018-10-02T12:39:35.616Z,74.70
2018-10-02T12:42:17.248Z,73.20
2018-10-02T12:44:52.134Z,73.10
2018-10-02T12:47:26.471Z,73.50
2018-10-02T12:50:06.060Z,72.90
2018-10-02T12:52:46.441Z,70.70
2018-10-02T12:55:18.065Z,70.00
2018-10-02T12:57:50.621Z,70.20
2018-10-02T13:00:26.724Z,70.40
2018-10-02T13:02:57.766Z,69.60
2018-10-02T13:05:29.181Z,69.70
2018-10-02T13:08:01.726Z,69.50
2018-10-02T13:10:32.919Z,70.20
2018-10-02T13:13:03.104Z,71.40
2018-10-02T13:15:36.954Z,71.80
2018-10-02T13:18:08.708Z,73.20
2018-10-02T13:20:40.250Z,74.00
2018-10-02T13:23:11.120Z,74.90
2018-10-02T13:25:41.840Z,76.40
2018-10-02T13:28:14.437Z,77.20
2018-10-02T13:30:44.632Z,77.90
2018-10-02T13:33:15.387Z,78.40
2018-10-02T13:35:46.457Z,79.10
2018-10-02T13:38:16.321Z,79.40
2018-10-02T13:40:46.939Z,79.40
2018-10-02T13:43:17.547Z,79.30
2018-10-02T13:45:48.007Z,79.30
2018-10-02T13:48:22.265Z,79.60
2018-10-02T13:50:56.406Z,79.70
2018-10-02T13:53:27.677Z,79.70
2018-10-02T13:55:59.756Z,79.70
2018-10-02T13:58:30.458Z,79.10
2018-10-02T14:01:06.060Z,78.90
2018-10-02T14:03:36.580Z,77.90
2018-10-02T14:06:09.199Z,78.70
2018-10-02T14:08:40.360Z,78.70
2018-10-02T14:11:15.990Z,78.40
2018-10-02T14:13:50.744Z,78.00
2018-10-02T14:16:20.988Z,78.10
2018-10-02T14:18:53.927Z,78.80
2018-10-02T14:21:31.146Z,80.00
2018-10-02T14:24:03.564Z,80.20
2018-10-02T14:26:34.392Z,80.50
2018-10-02T14:29:06.888Z,81.10
2018-10-02T14:31:39.491Z,80.80
2018-10-02T14:34:10.883Z,80.90
2018-10-02T14:36:42.226Z,81.60
2018-10-02T14:39:14.562Z,81.40
2018-10-02T14:41:49.645Z,81.90
2018-10-02T14:44:20.904Z,81.80
2018-10-02T14:46:57.246Z,82.10
2018-10-02T14:49:28.180Z,81.50
2018-10-02T14:51:58.994Z,81.10
2018-10-02T14:54:30.526Z,82.00
2018-10-02T14:57:05.568Z,81.80
2018-10-02T14:59:39.432Z,81.70
2018-10-02T15:02:11.739Z,82.10
2018-10-02T15:04:43.934Z,81.90
2018-10-02T15:07:15.783Z,81.40
2018-10-02T15:09:47.095Z,81.50
2018-10-02T15:12:18.167Z,80.80
2018-10-02T15:14:50.469Z,80.50
2018-10-02T15:17:22.975Z,80.50
2018-10-02T15:19:58.391Z,79.80
2018-10-02T15:22:32.138Z,78.40
2018-10-02T15:25:05.790Z,79.20
2018-10-02T15:27:37.456Z,78.20
2018-10-02T15:30:10.137Z,77.50
2018-10-02T15:32:41.818Z,77.50
2018-10-02T15:35:13.088Z,77.40
2018-10-02T15:37:43.711Z,77.20
2018-10-02T15:40:18.018Z,77.00
2018-10-02T15:42:50.133Z,76.60
2018-10-02T15:45:27.890Z,76.80
2018-10-02T15:47:59.423Z,76.90
2018-10-02T15:50:29.634Z,76.50
2018-10-02T15:53:01.610Z,76.60
2018-10-02T15:55:32.992Z,76.40
2018-10-02T15:58:05.481Z,76.50
2018-10-02T16:00:38.363Z,76.50
2018-10-02T16:03:08.240Z,76.70
2018-10-02T16:05:43.250Z,76.60
2018-10-02T16:08:16.162Z,76.80
2018-10-02T16:13:48.016Z,77.50
2018-10-02T16:16:27.167Z,77.90
2018-10-02T16:18:58.897Z,79.40
2018-10-02T16:21:30.160Z,80.30
2018-10-02T16:24:00.270Z,80.60
2018-10-02T16:26:31.953Z,80.90
2018-10-02T16:29:03.248Z,81.20
2018-10-02T16:31:35.003Z,81.40
2018-10-02T16:34:05.504Z,81.50
2018-10-02T16:36:35.891Z,81.50
2018-10-02T16:39:31.512Z,81.40
2018-10-02T16:42:03.420Z,81.60
2018-10-02T16:44:39.410Z,81.90
2018-10-02T16:47:11.870Z,82.20
2018-10-02T16:49:43.104Z,82.50
2018-10-02T16:52:20.281Z,82.60
2018-10-02T16:54:52.372Z,82.80
2018-10-02T16:57:23.432Z,83.10
2018-10-02T16:59:57.937Z,83.20
2018-10-02T17:02:28.534Z,83.30
2018-10-02T17:05:00.786Z,83.40
2018-10-02T17:07:34.723Z,83.60
2018-10-02T17:10:08.290Z,83.70
2018-10-02T17:12:39.618Z,84.00
2018-10-02T17:15:10.924Z,84.20
2018-10-02T17:17:41.929Z,84.40
2018-10-02T17:20:13.792Z,84.70
2018-10-02T17:22:54.481Z,85.90
2018-10-02T17:25:27.883Z,85.60
2018-10-02T17:27:58.637Z,85.90
2018-10-02T17:30:28.907Z,86.10
2018-10-02T17:32:59.849Z,86.20
2018-10-02T17:35:30.260Z,86.40
2018-10-02T17:38:00.397Z,86.60
2018-10-02T17:40:36.409Z,86.70
2018-10-02T17:43:40.522Z,86.70
2018-10-02T17:46:20.197Z,87.60
2018-10-02T17:48:50.964Z,86.90
2018-10-02T17:51:21.968Z,87.00
2018-10-02T17:53:54.323Z,86.90
2018-10-02T17:56:45.984Z,86.80
2018-10-02T17:59:34.772Z,86.80
2018-10-02T18:02:05.229Z,87.00
2018-10-02T18:04:35.294Z,87.10
2018-10-02T18:07:05.038Z,87.10
2018-10-02T18:09:36.229Z,87.10
2018-10-02T18:12:08.597Z,87.00
2018-10-02T18:14:39.344Z,87.10
2018-10-02T18:17:10.187Z,87.00
2018-10-02T18:19:41.870Z,86.90
2018-10-02T18:22:14.730Z,87.00
2018-10-02T18:24:46.598Z,87.00
2018-10-02T18:27:20.304Z,87.00
2018-10-02T18:29:52.845Z,86.90
2018-10-02T18:32:24.332Z,87.00
2018-10-02T18:35:15.458Z,86.80
2018-10-02T18:37:49.240Z,86.80
2018-10-02T18:40:24.261Z,86.90
2018-10-02T18:43:05.354Z,87.00
2018-10-02T18:45:40.972Z,86.80
2018-10-02T18:48:12.839Z,86.40
2018-10-02T18:50:44.090Z,86.50
2018-10-02T18:53:19.736Z,86.50
2018-10-02T18:55:51.412Z,86.60
2018-10-02T18:58:22.362Z,86.80
2018-10-02T19:00:54.561Z,86.70
2018-10-02T19:03:29.293Z,86.80
2018-10-02T19:06:02.333Z,86.90
2018-10-02T19:08:38.427Z,86.70
2018-10-02T19:11:14.483Z,86.80
2018-10-02T19:13:45.533Z,86.50
2018-10-02T19:16:22.125Z,86.70
2018-10-02T19:18:54.678Z,86.50
2018-10-02T19:21:26.544Z,86.70
2018-10-02T19:23:58.819Z,87.80
2018-10-02T19:26:30.505Z,88.10
2018-10-02T19:29:02.914Z,89.00
2018-10-02T19:31:37.828Z,89.30
2018-10-02T19:34:14.928Z,89.50
2018-10-02T19:36:46.567Z,90.10
2018-10-02T19:39:22.115Z,90.20
2018-10-02T19:41:52.978Z,90.30
2018-10-02T19:44:23.331Z,90.20
2018-10-02T19:46:58.216Z,90.40
2018-10-02T19:49:32.721Z,90.40
2018-10-02T19:52:12.295Z,90.30
2018-10-02T19:54:42.662Z,90.20
2018-10-02T19:57:14.972Z,90.20
2018-10-02T19:59:47.726Z,90.30
2018-10-02T20:02:21.288Z,90.30
2018-10-02T20:04:55.497Z,90.30
2018-10-02T20:07:27.767Z,90.30
2018-10-02T20:09:58.394Z,90.40
2018-10-02T20:12:29.082Z,90.30
2018-10-02T20:15:00.565Z,90.40
2018-10-02T20:17:33.373Z,90.40
2018-10-02T20:34:27.130Z,90.80
2018-10-02T20:37:01.054Z,90.50
2018-10-02T20:39:31.899Z,90.50
2018-10-02T20:42:03.342Z,90.50
2018-10-02T20:44:33.740Z,90.50
2018-10-02T20:47:04.685Z,90.60
2018-10-02T20:49:39.431Z,90.80
2018-10-02T20:52:10.890Z,90.70
2018-10-02T20:54:48.675Z,90.70
2018-10-02T20:57:20.249Z,90.60
2018-10-02T20:59:50.969Z,90.70
2018-10-02T21:02:27.074Z,90.60
2018-10-02T21:04:58.430Z,90.60
2018-10-02T21:07:29.178Z,90.60
2018-10-02T21:09:59.359Z,90.60
2018-10-02T21:12:31.782Z,90.50
2018-10-02T21:15:02.479Z,90.50
2018-10-02T21:17:34.100Z,90.50
2018-10-02T21:20:04.421Z,90.60
2018-10-02T21:22:34.994Z,90.60
2018-10-02T21:25:05.452Z,90.90
2018-10-02T21:27:40.391Z,90.60
2018-10-02T21:30:10.632Z,90.60
2018-10-02T21:32:49.715Z,90.50
2018-10-02T21:35:20.410Z,90.60
2018-10-02T21:37:51.394Z,90.50
2018-10-02T21:40:22.273Z,90.90
2018-10-02T21:42:54.687Z,90.70
2018-10-02T21:45:26.696Z,90.60
2018-10-02T21:47:58.032Z,90.60
2018-10-02T21:50:29.697Z,90.70
2018-10-02T21:52:59.782Z,90.60
2018-10-02T21:55:33.725Z,90.70
2018-10-02T21:58:06.749Z,90.70
2018-10-02T22:00:39.096Z,90.60
2018-10-02T22:03:11.701Z,90.70
2018-10-02T22:05:44.461Z,90.60
2018-10-02T22:08:16.031Z,90.70
2018-10-02T22:10:46.618Z,90.70
2018-10-02T22:13:19.022Z,90.60
2018-10-02T22:20:36.348Z,90.70
2018-10-02T22:23:08.453Z,90.60
2018-10-02T22:25:39.060Z,90.60
2018-10-02T22:28:30.716Z,90.60
2018-10-02T22:31:03.184Z,90.60
2018-10-02T22:33:34.815Z,90.50
2018-10-02T22:36:05.453Z,90.50
2018-10-02T22:38:36.100Z,90.50
2018-10-02T22:41:06.780Z,90.50
2018-10-02T22:43:38.794Z,90.60
2018-10-02T22:46:11.377Z,90.60
2018-10-02T22:48:42.535Z,90.50
2018-10-02T22:51:14.505Z,90.60
2018-10-02T22:53:44.968Z,90.80
2018-10-02T22:56:15.970Z,90.80
2018-10-02T22:58:46.923Z,90.80
2018-10-02T23:01:17.423Z,90.80
2018-10-02T23:03:48.047Z,90.70
2018-10-02T23:06:18.693Z,90.90
2018-10-02T23:08:49.267Z,90.80
2018-10-02T23:11:37.259Z,90.80
2018-10-02T23:14:07.537Z,90.80
2018-10-02T23:16:38.932Z,90.90
2018-10-02T23:19:09.794Z,90.90
2018-10-02T23:21:40.118Z,90.90
2018-10-02T23:24:10.679Z,91.00
2018-10-02T23:26:40.966Z,91.10
2018-10-02T23:29:11.401Z,91.10
2018-10-02T23:31:45.329Z,91.00
2018-10-02T23:34:16.375Z,91.10
2018-10-02T23:36:46.829Z,91.00
2018-10-02T23:39:17.037Z,91.10
2018-10-02T23:41:47.512Z,91.10
2018-10-02T23:44:20.367Z,91.10
2018-10-02T23:46:55.254Z,91.10
2018-10-02T23:49:25.708Z,91.20
2018-10-02T23:51:58.268Z,91.20
2018-10-02T23:54:29.550Z,91.20
2018-10-02T23:56:59.720Z,91.20
2018-10-02T23:59:30.065Z,91.20
